Annapolis, Maryland
Current Conditions -  °F | °C
As of 11:54 AM on Thursday 27 Nov 2014 (Local Time) from KNAK Reporting Station
Few Clouds Few Clouds  
Wind Chill:   Ceiling: Unl
Heat Index:   Visibility: 10mi
Dew Point: -1°   Wind: 5mph
Humidity: 65%   Direction: 320°NW
Pressure: 30.04"   Gusts: NA
Location:  38.98°N, 76.49°W
Report Text: KNAK 271654Z AUTO 32004KT 10SM FEW120 06/M01 A3004 RMK AO2 SLP174 T00561006 $
Loading
Personal Weather Stations






























Interactive Weather Map New forecast layout! Learn more

10-Day Weather Forecast

Advertisements
Track Severe Weather on mobile